^^
Your Local Weather - Clay, NY Station Historical Data
Daily Summary for February 28, 2018 Units:  Both    English   Metric
« Previous Day
Next Day »
Daily Weekly Monthly Yearly Custom
  High: Low: Average:
Temperature: 62.4 °F /  16.9 °C 31.2 °F /  -0.4 °C 46 °F /  7.8 °C
Dew Point: 43.5 °F /  6.4 °C 25.1 °F /  -3.8 °C 33.1 °F /  0.6 °C
Humidity: 87% 29% 66%
Wind Speed: 9.0mph /  14.5km/h - 2mph /  3.2km/h
Wind Gust: 13.0mph /  20.9km/h - -
Wind- - SW
Pressure: 30.05 in /  1017.5 hPa 29.73 in /  1006.7 hPa -
Precipitation: 0.02 in /  0.51 mm    
Historical Graphs
 
 
Tabular Data for February 28, 2018
Time Temperature Dew Point Pressure Wind Wind Speed Wind Gust Humidity Rainfall Rate (Hourly) solar
00:04 34.1 °F /  1.2 °C 25.3 °F /  -3.7 °C 30.04in /  1017.2hPa Calm     70% 0.00in /  0mm 0 W/m2
00:10 34.2 °F /  1.2 °C 25.8 °F /  -3.4 °C 30.04in /  1017.2hPa Calm     71% 0.00in /  0mm 0 W/m2
00:16 34.3 °F /  1.3 °C 25.9 °F /  -3.4 °C 30.05in /  1017.5hPa Calm     71% 0.00in /  0mm 0 W/m2
00:22 34.3 °F /  1.3 °C 25.9 °F /  -3.4 °C 30.04in /  1017.2hPa Calm     71% 0.00in /  0mm 0 W/m2
00:28 34.2 °F /  1.2 °C 25.8 °F /  -3.4 °C 30.04in /  1017.2hPa Calm     71% 0.00in /  0mm 0 W/m2
00:34 34.0 °F /  1.1 °C 25.9 °F /  -3.4 °C 30.04in /  1017.2hPa Calm     72% 0.00in /  0mm 0 W/m2
00:40 33.8 °F /  1 °C 25.7 °F /  -3.5 °C 30.04in /  1017.2hPa Calm     72% 0.00in /  0mm 0 W/m2
00:46 33.6 °F /  0.9 °C 25.9 °F /  -3.4 °C 30.03in /  1016.8hPa Calm     73% 0.00in /  0mm 0 W/m2
00:52 33.5 °F /  0.8 °C 25.8 °F /  -3.4 °C 30.03in /  1016.8hPa Calm     73% 0.00in /  0mm 0 W/m2
00:58 33.5 °F /  0.8 °C 26.4 °F /  -3.1 °C 30.03in /  1016.8hPa Calm     75% 0.00in /  0mm 0 W/m2
01:04 33.4 °F /  0.8 °C 26.6 °F /  -3 °C 30.03in /  1016.8hPa Calm     76% 0.00in /  0mm 0 W/m2
01:10 33.2 °F /  0.7 °C 26.8 °F /  -2.9 °C 30.03in /  1016.8hPa Calm     77% 0.00in /  0mm 0 W/m2
01:16 32.9 °F /  0.5 °C 26.5 °F /  -3.1 °C 30.03in /  1016.8hPa Calm     77% 0.00in /  0mm 0 W/m2
01:22 32.7 °F /  0.4 °C 26.6 °F /  -3 °C 30.03in /  1016.8hPa Calm     78% 0.00in /  0mm 0 W/m2
01:28 32.5 °F /  0.3 °C 26.7 °F /  -2.9 °C 30.03in /  1016.8hPa Calm     79% 0.00in /  0mm 0 W/m2
01:34 32.3 °F /  0.2 °C 26.8 °F /  -2.9 °C 30.03in /  1016.8hPa Calm     80% 0.00in /  0mm 0 W/m2
01:40 32.3 °F /  0.2 °C 27.1 °F /  -2.7 °C 30.03in /  1016.8hPa Calm     81% 0.00in /  0mm 0 W/m2
01:46 32.1 °F /  0.1 °C 26.9 °F /  -2.8 °C 30.03in /  1016.8hPa Calm     81% 0.00in /  0mm 0 W/m2
01:52 32.1 °F /  0.1 °C 26.9 °F /  -2.8 °C 30.03in /  1016.8hPa Calm     81% 0.00in /  0mm 0 W/m2
01:58 32.1 °F /  0.1 °C 26.9 °F /  -2.8 °C 30.03in /  1016.8hPa Calm   1.0mph /  1.6km/h 81% 0.00in /  0mm 0 W/m2
02:04 32.2 °F /  0.1 °C 27.0 °F /  -2.8 °C 30.03in /  1016.8hPa Calm     81% 0.00in /  0mm 0 W/m2
02:10 32.3 °F /  0.2 °C 27.1 °F /  -2.7 °C 30.03in /  1016.8hPa Calm     81% 0.00in /  0mm 0 W/m2
02:16 32.3 °F /  0.2 °C 27.1 °F /  -2.7 °C 30.03in /  1016.8hPa Calm     81% 0.00in /  0mm 0 W/m2
02:22 32.6 °F /  0.3 °C 27.7 °F /  -2.4 °C 30.02in /  1016.5hPa Calm     82% 0.00in /  0mm 0 W/m2
02:28 32.9 °F /  0.5 °C 28.0 °F /  -2.2 °C 30.02in /  1016.5hPa Calm     82% 0.00in /  0mm 0 W/m2
02:34 33.1 °F /  0.6 °C 28.2 °F /  -2.1 °C 30.02in /  1016.5hPa Calm     82% 0.00in /  0mm 0 W/m2
02:40 33.3 °F /  0.7 °C 28.4 °F /  -2 °C 30.02in /  1016.5hPa Calm     82% 0.00in /  0mm 0 W/m2
02:46 33.4 °F /  0.8 °C 28.2 °F /  -2.1 °C 30.02in /  1016.5hPa Calm     81% 0.00in /  0mm 0 W/m2
02:52 33.6 °F /  0.9 °C 28.7 °F /  -1.8 °C 30.01in /  1016.1hPa Calm     82% 0.00in /  0mm 0 W/m2
02:58 33.6 °F /  0.9 °C 29.0 °F /  -1.7 °C 30.01in /  1016.1hPa Calm     83% 0.00in /  0mm 0 W/m2
03:04 33.6 °F /  0.9 °C 29.0 °F /  -1.7 °C 30.01in /  1016.1hPa Calm     83% 0.00in /  0mm 0 W/m2
03:10 33.4 °F /  0.8 °C 28.8 °F /  -1.8 °C 30.00in /  1015.8hPa Calm     83% 0.00in /  0mm 0 W/m2
03:16 33.4 °F /  0.8 °C 28.8 °F /  -1.8 °C 30.00in /  1015.8hPa Calm     83% 0.00in /  0mm 0 W/m2
03:22 33.4 °F /  0.8 °C 28.8 °F /  -1.8 °C 30.00in /  1015.8hPa Calm     83% 0.00in /  0mm 0 W/m2
03:28 33.4 °F /  0.8 °C 28.8 °F /  -1.8 °C 30.00in /  1015.8hPa Calm     83% 0.00in /  0mm 0 W/m2
03:34 33.5 °F /  0.8 °C 28.9 °F /  -1.7 °C 30.00in /  1015.8hPa Calm     83% 0.00in /  0mm 0 W/m2
03:40 33.5 °F /  0.8 °C 28.9 °F /  -1.7 °C 30.00in /  1015.8hPa Calm     83% 0.00in /  0mm 0 W/m2
03:46 33.5 °F /  0.8 °C 28.9 °F /  -1.7 °C 30.00in /  1015.8hPa Calm     83% 0.00in /  0mm 0 W/m2
03:52 33.6 °F /  0.9 °C 29.0 °F /  -1.7 °C 29.99in /  1015.5hPa Calm     83% 0.00in /  0mm 0 W/m2
03:58 33.7 °F /  0.9 °C 29.1 °F /  -1.6 °C 29.99in /  1015.5hPa SW 1.0mph /  1.6km/h 3.0mph /  4.8km/h 83% 0.00in /  0mm 0 W/m2
04:04 33.8 °F /  1 °C 29.2 °F /  -1.6 °C 29.99in /  1015.5hPa SW 1.0mph /  1.6km/h 1.0mph /  1.6km/h 83% 0.00in /  0mm 0 W/m2
04:10 33.9 °F /  1.1 °C 29.3 °F /  -1.5 °C 29.98in /  1015.1hPa Calm     83% 0.00in /  0mm 0 W/m2
04:16 33.9 °F /  1.1 °C 29.3 °F /  -1.5 °C 29.98in /  1015.1hPa Calm     83% 0.00in /  0mm 0 W/m2
04:22 34.0 °F /  1.1 °C 29.4 °F /  -1.4 °C 29.98in /  1015.1hPa Calm     83% 0.00in /  0mm 0 W/m2
04:28 34.1 °F /  1.2 °C 29.8 °F /  -1.2 °C 29.98in /  1015.1hPa Calm     84% 0.00in /  0mm 0 W/m2
04:34 34.2 °F /  1.2 °C 29.9 °F /  -1.2 °C 29.98in /  1015.1hPa Calm     84% 0.00in /  0mm 0 W/m2
04:40 34.3 °F /  1.3 °C 30.0 °F /  -1.1 °C 29.98in /  1015.1hPa Calm     84% 0.00in /  0mm 0 W/m2
04:46 34.3 °F /  1.3 °C 29.7 °F /  -1.3 °C 29.98in /  1015.1hPa Calm     83% 0.00in /  0mm 0 W/m2
04:52 34.3 °F /  1.3 °C 29.7 °F /  -1.3 °C 29.98in /  1015.1hPa Calm     83% 0.00in /  0mm 0 W/m2
04:58 34.3 °F /  1.3 °C 29.4 °F /  -1.4 °C 29.98in /  1015.1hPa Calm     82% 0.00in /  0mm 0 W/m2
05:04 34.3 °F /  1.3 °C 29.4 °F /  -1.4 °C 29.98in /  1015.1hPa Calm     82% 0.00in /  0mm 0 W/m2
05:10 34.3 °F /  1.3 °C 29.1 °F /  -1.6 °C 29.98in /  1015.1hPa Calm     81% 0.00in /  0mm 0 W/m2
05:16 34.2 °F /  1.2 °C 29.3 °F /  -1.5 °C 29.98in /  1015.1hPa Calm     82% 0.00in /  0mm 0 W/m2
05:22 34.0 °F /  1.1 °C 29.1 °F /  -1.6 °C 29.97in /  1014.8hPa Calm     82% 0.00in /  0mm 0 W/m2
05:28 33.9 °F /  1.1 °C 29.0 °F /  -1.7 °C 29.97in /  1014.8hPa Calm     82% 0.00in /  0mm 0 W/m2
05:34 33.7 °F /  0.9 °C 28.8 °F /  -1.8 °C 29.97in /  1014.8hPa Calm     82% 0.00in /  0mm 0 W/m2
05:40 33.5 °F /  0.8 °C 28.6 °F /  -1.9 °C 29.97in /  1014.8hPa Calm     82% 0.00in /  0mm 0 W/m2
05:46 33.3 °F /  0.7 °C 28.4 °F /  -2 °C 29.97in /  1014.8hPa Calm     82% 0.00in /  0mm 0 W/m2
05:52 33.0 °F /  0.6 °C 28.4 °F /  -2 °C 29.97in /  1014.8hPa Calm     83% 0.00in /  0mm 0 W/m2
05:58 32.8 °F /  0.4 °C 28.2 °F /  -2.1 °C 29.97in /  1014.8hPa Calm     83% 0.00in /  0mm 0 W/m2
06:04 32.6 °F /  0.3 °C 28.3 °F /  -2.1 °C 29.97in /  1014.8hPa Calm     84% 0.00in /  0mm 0 W/m2
06:10 32.5 °F /  0.3 °C 28.2 °F /  -2.1 °C 29.97in /  1014.8hPa Calm     84% 0.00in /  0mm 0 W/m2
06:16 32.3 °F /  0.2 °C 28.0 °F /  -2.2 °C 29.96in /  1014.4hPa Calm     84% 0.00in /  0mm 0 W/m2
06:22 32.1 °F /  0.1 °C 27.8 °F /  -2.3 °C 29.96in /  1014.4hPa Calm     84% 0.00in /  0mm 0 W/m2
06:28 32.0 °F /  0 °C 28.0 °F /  -2.2 °C 29.96in /  1014.4hPa Calm     85% 0.00in /  0mm 0 W/m2
06:34 31.9 °F /  -0.1 °C 27.9 °F /  -2.3 °C 29.95in /  1014.1hPa Calm   2.0mph /  3.2km/h 85% 0.00in /  0mm 0 W/m2
06:40 31.8 °F /  -0.1 °C 27.8 °F /  -2.3 °C 29.95in /  1014.1hPa Calm     85% 0.00in /  0mm 0 W/m2
06:46 31.5 °F /  -0.3 °C 27.5 °F /  -2.5 °C 29.95in /  1014.1hPa Calm     85% 0.00in /  0mm 5 W/m2
06:52 31.3 °F /  -0.4 °C 27.3 °F /  -2.6 °C 29.95in /  1014.1hPa Calm     85% 0.00in /  0mm 9 W/m2
06:58 31.2 °F /  -0.4 °C 27.2 °F /  -2.7 °C 29.95in /  1014.1hPa Calm     85% 0.00in /  0mm 16 W/m2
07:04 31.2 °F /  -0.4 °C 27.2 °F /  -2.7 °C 29.95in /  1014.1hPa Calm     85% 0.00in /  0mm 21 W/m2
07:10 31.4 °F /  -0.3 °C 27.7 °F /  -2.4 °C 29.95in /  1014.1hPa Calm     86% 0.00in /  0mm 25 W/m2
07:16 31.5 °F /  -0.3 °C 27.8 °F /  -2.3 °C 29.95in /  1014.1hPa Calm     86% 0.00in /  0mm 28 W/m2
07:22 31.6 °F /  -0.2 °C 27.9 °F /  -2.3 °C 29.95in /  1014.1hPa Calm     86% 0.00in /  0mm 32 W/m2
07:28 31.8 °F /  -0.1 °C 28.1 °F /  -2.2 °C 29.95in /  1014.1hPa Calm     86% 0.00in /  0mm 44 W/m2
07:34 31.9 °F /  -0.1 °C 28.2 °F /  -2.1 °C 29.95in /  1014.1hPa Calm     86% 0.00in /  0mm 54 W/m2
07:40 32.1 °F /  0.1 °C 28.4 °F /  -2 °C 29.94in /  1013.8hPa Calm     86% 0.00in /  0mm 98 W/m2
07:46 32.4 °F /  0.2 °C 28.7 °F /  -1.8 °C 29.94in /  1013.8hPa Calm     86% 0.00in /  0mm 93 W/m2
07:52 32.8 °F /  0.4 °C 29.1 °F /  -1.6 °C 29.94in /  1013.8hPa Calm     86% 0.00in /  0mm 121 W/m2
07:58 33.6 °F /  0.9 °C 29.9 °F /  -1.2 °C 29.94in /  1013.8hPa Calm     86% 0.00in /  0mm 49 W/m2
08:04 34.5 °F /  1.4 °C 30.5 °F /  -0.8 °C 29.94in /  1013.8hPa Calm     85% 0.00in /  0mm 76 W/m2
08:10 35.7 °F /  2.1 °C 31.3 °F /  -0.4 °C 29.93in /  1013.4hPa Calm     84% 0.00in /  0mm 127 W/m2
08:16 37.0 °F /  2.8 °C 32.3 °F /  0.2 °C 29.93in /  1013.4hPa Calm     83% 0.00in /  0mm 162 W/m2
08:22 38.5 °F /  3.6 °C 33.5 °F /  0.8 °C 29.93in /  1013.4hPa Calm     82% 0.00in /  0mm 160 W/m2
08:28 39.8 °F /  4.3 °C 34.4 °F /  1.3 °C 29.93in /  1013.4hPa Calm   1.0mph /  1.6km/h 81% 0.00in /  0mm 156 W/m2
08:34 41.2 °F /  5.1 °C 34.5 °F /  1.4 °C 29.93in /  1013.4hPa Calm     77% 0.00in /  0mm 135 W/m2
08:40 43.4 °F /  6.3 °C 32.8 °F /  0.4 °C 29.92in /  1013.1hPa Calm   1.0mph /  1.6km/h 66% 0.00in /  0mm 278 W/m2
08:46 46.2 °F /  7.9 °C 32.2 °F /  0.1 °C 29.92in /  1013.1hPa SW 1.0mph /  1.6km/h 2.0mph /  3.2km/h 58% 0.00in /  0mm 345 W/m2
08:52 48.1 °F /  8.9 °C 27.7 °F /  -2.4 °C 29.92in /  1013.1hPa SSE 2.0mph /  3.2km/h 3.0mph /  4.8km/h 45% 0.00in /  0mm 200 W/m2
08:58 49.1 °F /  9.5 °C 27.5 °F /  -2.5 °C 29.92in /  1013.1hPa South 2.0mph /  3.2km/h 3.0mph /  4.8km/h 43% 0.00in /  0mm 160 W/m2
09:04 49.1 °F /  9.5 °C 27.0 °F /  -2.8 °C 29.92in /  1013.1hPa South 2.0mph /  3.2km/h 3.0mph /  4.8km/h 42% 0.00in /  0mm 229 W/m2
09:10 50.2 °F /  10.1 °C 26.8 °F /  -2.9 °C 29.92in /  1013.1hPa SSW 2.0mph /  3.2km/h 3.0mph /  4.8km/h 40% 0.00in /  0mm 265 W/m2
09:16 50.4 °F /  10.2 °C 26.3 °F /  -3.2 °C 29.92in /  1013.1hPa South 3.0mph /  4.8km/h 5.0mph /  8km/h 39% 0.00in /  0mm 165 W/m2
09:22 50.2 °F /  10.1 °C 26.2 °F /  -3.2 °C 29.91in /  1012.8hPa South 3.0mph /  4.8km/h 6.0mph /  9.7km/h 39% 0.00in /  0mm 163 W/m2
09:28 50.3 °F /  10.2 °C 25.6 °F /  -3.6 °C 29.91in /  1012.8hPa SSW 3.0mph /  4.8km/h 6.0mph /  9.7km/h 38% 0.00in /  0mm 207 W/m2
09:34 51.4 °F /  10.8 °C 26.6 °F /  -3 °C 29.91in /  1012.8hPa SW 3.0mph /  4.8km/h 3.0mph /  4.8km/h 38% 0.00in /  0mm 492 W/m2
09:40 51.7 °F /  10.9 °C 27.5 °F /  -2.5 °C 29.90in /  1012.4hPa SSW 2.0mph /  3.2km/h 4.0mph /  6.4km/h 39% 0.00in /  0mm 271 W/m2
09:46 52.0 °F /  11.1 °C 25.2 °F /  -3.8 °C 29.89in /  1012.1hPa SSW 3.0mph /  4.8km/h 5.0mph /  8km/h 35% 0.00in /  0mm 276 W/m2
09:52 52.3 °F /  11.3 °C 26.1 °F /  -3.3 °C 29.89in /  1012.1hPa South 5.0mph /  8km/h 8.0mph /  12.9km/h 36% 0.00in /  0mm 209 W/m2
09:58 52.3 °F /  11.3 °C 26.8 °F /  -2.9 °C 29.89in /  1012.1hPa SSW 6.0mph /  9.7km/h 8.0mph /  12.9km/h 37% 0.00in /  0mm 311 W/m2
10:04 53.3 °F /  11.8 °C 26.3 °F /  -3.2 °C 29.89in /  1012.1hPa South 4.0mph /  6.4km/h 5.0mph /  8km/h 35% 0.00in /  0mm 552 W/m2
10:10 53.8 °F /  12.1 °C 26.1 °F /  -3.3 °C 29.88in /  1011.7hPa SSW 5.0mph /  8km/h 7.0mph /  11.3km/h 34% 0.00in /  0mm 619 W/m2
10:16 54.1 °F /  12.3 °C 26.3 °F /  -3.2 °C 29.88in /  1011.7hPa WSW 6.0mph /  9.7km/h 7.0mph /  11.3km/h 34% 0.00in /  0mm 575 W/m2
10:22 55.0 °F /  12.8 °C 26.4 °F /  -3.1 °C 29.88in /  1011.7hPa SSW 5.0mph /  8km/h 5.0mph /  8km/h 33% 0.00in /  0mm 598 W/m2
10:28 54.6 °F /  12.6 °C 26.8 °F /  -2.9 °C 29.87in /  1011.4hPa SSW 5.0mph /  8km/h 10.0mph /  16.1km/h 34% 0.00in /  0mm 580 W/m2
10:34 55.3 °F /  12.9 °C 27.4 °F /  -2.6 °C 29.87in /  1011.4hPa SSE 5.0mph /  8km/h 5.0mph /  8km/h 34% 0.00in /  0mm 468 W/m2
10:40 55.3 °F /  12.9 °C 26.7 °F /  -2.9 °C 29.87in /  1011.4hPa SSW 4.0mph /  6.4km/h 8.0mph /  12.9km/h 33% 0.00in /  0mm 598 W/m2
10:46 55.2 °F /  12.9 °C 28.0 °F /  -2.2 °C 29.87in /  1011.4hPa SSW 5.0mph /  8km/h 8.0mph /  12.9km/h 35% 0.00in /  0mm 610 W/m2
10:52 55.9 °F /  13.3 °C 27.2 °F /  -2.7 °C 29.86in /  1011.1hPa SSW 4.0mph /  6.4km/h 5.0mph /  8km/h 33% 0.00in /  0mm 638 W/m2
10:58 55.7 °F /  13.2 °C 27.0 °F /  -2.8 °C 29.86in /  1011.1hPa South 5.0mph /  8km/h 10.0mph /  16.1km/h 33% 0.00in /  0mm 575 W/m2
11:04 55.8 °F /  13.2 °C 26.3 °F /  -3.2 °C 29.86in /  1011.1hPa SW 5.0mph /  8km/h 6.0mph /  9.7km/h 32% 0.00in /  0mm 411 W/m2
11:10 56.1 °F /  13.4 °C 26.6 °F /  -3 °C 29.86in /  1011.1hPa SW 4.0mph /  6.4km/h 6.0mph /  9.7km/h 32% 0.00in /  0mm 650 W/m2
11:16 56.6 °F /  13.7 °C 27.8 °F /  -2.3 °C 29.86in /  1011.1hPa SSE 5.0mph /  8km/h 7.0mph /  11.3km/h 33% 0.00in /  0mm 691 W/m2
11:22 56.2 °F /  13.4 °C 25.1 °F /  -3.8 °C 29.86in /  1011.1hPa SW 5.0mph /  8km/h 7.0mph /  11.3km/h 30% 0.00in /  0mm 649 W/m2
11:28 56.9 °F /  13.8 °C 26.5 °F /  -3.1 °C 29.85in /  1010.7hPa South 4.0mph /  6.4km/h 7.0mph /  11.3km/h 31% 0.00in /  0mm 675 W/m2
11:34 56.9 °F /  13.8 °C 27.3 °F /  -2.6 °C 29.84in /  1010.4hPa SE 5.0mph /  8km/h 5.0mph /  8km/h 32% 0.00in /  0mm 403 W/m2
11:40 57.6 °F /  14.2 °C 27.9 °F /  -2.3 °C 29.84in /  1010.4hPa SW 5.0mph /  8km/h 7.0mph /  11.3km/h 32% 0.00in /  0mm 814 W/m2
11:46 56.8 °F /  13.8 °C 26.5 °F /  -3.1 °C 29.83in /  1010hPa South 5.0mph /  8km/h 8.0mph /  12.9km/h 31% 0.00in /  0mm 288 W/m2
11:52 56.7 °F /  13.7 °C 26.4 °F /  -3.1 °C 29.83in /  1010hPa SSW 6.0mph /  9.7km/h 6.0mph /  9.7km/h 31% 0.00in /  0mm 403 W/m2
11:58 58.2 °F /  14.6 °C 26.1 °F /  -3.3 °C 29.83in /  1010hPa SSW 5.0mph /  8km/h 8.0mph /  12.9km/h 29% 0.00in /  0mm 744 W/m2
12:04 58.1 °F /  14.5 °C 26.8 °F /  -2.9 °C 29.83in /  1010hPa SW 5.0mph /  8km/h 5.0mph /  8km/h 30% 0.00in /  0mm 684 W/m2
12:10 59.0 °F /  15 °C 27.6 °F /  -2.4 °C 29.82in /  1009.7hPa SW 4.0mph /  6.4km/h 4.0mph /  6.4km/h 30% 0.00in /  0mm 738 W/m2
12:16 59.7 °F /  15.4 °C 31.3 °F /  -0.4 °C 29.81in /  1009.4hPa SSE 3.0mph /  4.8km/h 6.0mph /  9.7km/h 34% 0.00in /  0mm 687 W/m2
12:22 59.8 °F /  15.4 °C 29.1 °F /  -1.6 °C 29.81in /  1009.4hPa SW 4.0mph /  6.4km/h 11.0mph /  17.7km/h 31% 0.00in /  0mm 773 W/m2
12:28 59.3 °F /  15.2 °C 30.2 °F /  -1 °C 29.81in /  1009.4hPa SSW 5.0mph /  8km/h 11.0mph /  17.7km/h 33% 0.00in /  0mm 469 W/m2
12:34 60.5 °F /  15.8 °C 31.2 °F /  -0.4 °C 29.80in /  1009hPa SE 5.0mph /  8km/h 8.0mph /  12.9km/h 33% 0.00in /  0mm 469 W/m2
12:40 60.6 °F /  15.9 °C 32.1 °F /  0.1 °C 29.80in /  1009hPa SW 5.0mph /  8km/h 10.0mph /  16.1km/h 34% 0.00in /  0mm 469 W/m2
12:46 60.4 °F /  15.8 °C 31.9 °F /  -0.1 °C 29.80in /  1009hPa South 5.0mph /  8km/h 10.0mph /  16.1km/h 34% 0.00in /  0mm 353 W/m2
12:52 60.0 °F /  15.6 °C 30.8 °F /  -0.7 °C 29.80in /  1009hPa SW 5.0mph /  8km/h 9.0mph /  14.5km/h 33% 0.00in /  0mm 403 W/m2
12:58 60.3 °F /  15.7 °C 30.3 °F /  -0.9 °C 29.79in /  1008.7hPa South 6.0mph /  9.7km/h 9.0mph /  14.5km/h 32% 0.00in /  0mm 782 W/m2
13:04 60.7 °F /  15.9 °C 31.4 °F /  -0.3 °C 29.78in /  1008.4hPa SSW 6.0mph /  9.7km/h 6.0mph /  9.7km/h 33% 0.00in /  0mm 772 W/m2
13:10 60.9 °F /  16.1 °C 30.0 °F /  -1.1 °C 29.78in /  1008.4hPa West 6.0mph /  9.7km/h 9.0mph /  14.5km/h 31% 0.00in /  0mm 232 W/m2
13:16 59.7 °F /  15.4 °C 30.5 °F /  -0.8 °C 29.78in /  1008.4hPa SSW 6.0mph /  9.7km/h 9.0mph /  14.5km/h 33% 0.00in /  0mm 257 W/m2
13:22 59.7 °F /  15.4 °C 31.3 °F /  -0.4 °C 29.77in /  1008hPa SSW 5.0mph /  8km/h 6.0mph /  9.7km/h 34% 0.00in /  0mm 383 W/m2
13:28 60.4 °F /  15.8 °C 30.4 °F /  -0.9 °C 29.76in /  1007.7hPa SSW 5.0mph /  8km/h 7.0mph /  11.3km/h 32% 0.00in /  0mm 323 W/m2
13:34 60.1 °F /  15.6 °C 30.1 °F /  -1.1 °C 29.76in /  1007.7hPa SSE 5.0mph /  8km/h 5.0mph /  8km/h 32% 0.00in /  0mm 262 W/m2
13:40 60.0 °F /  15.6 °C 30.0 °F /  -1.1 °C 29.76in /  1007.7hPa SSW 5.0mph /  8km/h 5.0mph /  8km/h 32% 0.00in /  0mm 255 W/m2
13:46 60.7 °F /  15.9 °C 30.6 °F /  -0.8 °C 29.76in /  1007.7hPa South 5.0mph /  8km/h 6.0mph /  9.7km/h 32% 0.00in /  0mm 380 W/m2
13:52 61.4 °F /  16.3 °C 31.3 °F /  -0.4 °C 29.76in /  1007.7hPa SSW 4.0mph /  6.4km/h 6.0mph /  9.7km/h 32% 0.00in /  0mm 297 W/m2
13:58 61.1 °F /  16.2 °C 31.0 °F /  -0.6 °C 29.76in /  1007.7hPa South 5.0mph /  8km/h 6.0mph /  9.7km/h 32% 0.00in /  0mm 473 W/m2
14:04 61.1 °F /  16.2 °C 31.8 °F /  -0.1 °C 29.75in /  1007.3hPa SW 6.0mph /  9.7km/h 7.0mph /  11.3km/h 33% 0.00in /  0mm 633 W/m2
14:10 61.7 °F /  16.5 °C 32.3 °F /  0.2 °C 29.75in /  1007.3hPa SW 5.0mph /  8km/h 5.0mph /  8km/h 33% 0.00in /  0mm 705 W/m2
14:16 62.4 °F /  16.9 °C 30.5 °F /  -0.8 °C 29.75in /  1007.3hPa SSW 4.0mph /  6.4km/h 5.0mph /  8km/h 30% 0.00in /  0mm 645 W/m2
14:22 62.4 °F /  16.9 °C 30.5 °F /  -0.8 °C 29.75in /  1007.3hPa West 6.0mph /  9.7km/h 6.0mph /  9.7km/h 30% 0.00in /  0mm 628 W/m2
14:28 61.5 °F /  16.4 °C 29.7 °F /  -1.3 °C 29.75in /  1007.3hPa SW 7.0mph /  11.3km/h 11.0mph /  17.7km/h 30% 0.00in /  0mm 239 W/m2
14:34 60.6 °F /  15.9 °C 30.6 °F /  -0.8 °C 29.75in /  1007.3hPa WSW 7.0mph /  11.3km/h 11.0mph /  17.7km/h 32% 0.00in /  0mm 158 W/m2
14:40 60.1 °F /  15.6 °C 30.1 °F /  -1.1 °C 29.75in /  1007.3hPa WSW 6.0mph /  9.7km/h 6.0mph /  9.7km/h 32% 0.00in /  0mm 211 W/m2
14:46 60.2 °F /  15.7 °C 30.2 °F /  -1 °C 29.75in /  1007.3hPa SSW 5.0mph /  8km/h 7.0mph /  11.3km/h 32% 0.00in /  0mm 629 W/m2
14:52 61.4 °F /  16.3 °C 31.3 °F /  -0.4 °C 29.74in /  1007hPa SW 5.0mph /  8km/h 11.0mph /  17.7km/h 32% 0.00in /  0mm 538 W/m2
14:58 61.6 °F /  16.4 °C 30.6 °F /  -0.8 °C 29.73in /  1006.7hPa SSW 5.0mph /  8km/h 11.0mph /  17.7km/h 31% 0.00in /  0mm 513 W/m2
15:04 61.3 °F /  16.3 °C 29.6 °F /  -1.3 °C 29.73in /  1006.7hPa SSW 6.0mph /  9.7km/h 8.0mph /  12.9km/h 30% 0.00in /  0mm 441 W/m2
15:10 61.4 °F /  16.3 °C 31.3 °F /  -0.4 °C 29.73in /  1006.7hPa SSW 6.0mph /  9.7km/h 6.0mph /  9.7km/h 32% 0.00in /  0mm 422 W/m2
15:16 61.0 °F /  16.1 °C 31.7 °F /  -0.2 °C 29.73in /  1006.7hPa SSW 6.0mph /  9.7km/h 8.0mph /  12.9km/h 33% 0.00in /  0mm 290 W/m2
15:22 60.9 °F /  16.1 °C 33.0 °F /  0.6 °C 29.73in /  1006.7hPa SW 7.0mph /  11.3km/h 8.0mph /  12.9km/h 35% 0.00in /  0mm 304 W/m2
15:30 60.2 °F /  15.7 °C 31.7 °F /  -0.2 °C 29.73in /  1006.7hPa SW 7.0mph /  11.3km/h 13.0mph /  20.9km/h 34% 0.00in /  0mm 153 W/m2
15:38 59.8 °F /  15.4 °C 31.3 °F /  -0.4 °C 29.73in /  1006.7hPa SW 6.0mph /  9.7km/h 13.0mph /  20.9km/h 34% 0.00in /  0mm 250 W/m2
15:44 60.1 °F /  15.6 °C 32.3 °F /  0.2 °C 29.73in /  1006.7hPa SSW 4.0mph /  6.4km/h 6.0mph /  9.7km/h 35% 0.00in /  0mm 348 W/m2
15:50 60.2 °F /  15.7 °C 31.7 °F /  -0.2 °C 29.73in /  1006.7hPa SSW 4.0mph /  6.4km/h 4.0mph /  6.4km/h 34% 0.00in /  0mm 141 W/m2
15:56 60.0 °F /  15.6 °C 31.5 °F /  -0.3 °C 29.73in /  1006.7hPa South 4.0mph /  6.4km/h 13.0mph /  20.9km/h 34% 0.00in /  0mm 121 W/m2
16:02 59.5 °F /  15.3 °C 31.1 °F /  -0.5 °C 29.73in /  1006.7hPa WSW 5.0mph /  8km/h 5.0mph /  8km/h 34% 0.00in /  0mm 90 W/m2
16:10 59.2 °F /  15.1 °C 30.8 °F /  -0.7 °C 29.74in /  1007hPa SW 5.0mph /  8km/h 10.0mph /  16.1km/h 34% 0.00in /  0mm 72 W/m2
16:18 58.9 °F /  14.9 °C 31.3 °F /  -0.4 °C 29.74in /  1007hPa SSW 6.0mph /  9.7km/h 10.0mph /  16.1km/h 35% 0.00in /  0mm 47 W/m2
16:24 58.8 °F /  14.9 °C 31.9 °F /  -0.1 °C 29.74in /  1007hPa WSW 6.0mph /  9.7km/h 9.0mph /  14.5km/h 36% 0.00in /  0mm 35 W/m2
16:30 58.2 °F /  14.6 °C 33.3 °F /  0.7 °C 29.75in /  1007.3hPa WSW 9.0mph /  14.5km/h 9.0mph /  14.5km/h 39% 0.00in /  0mm 32 W/m2
16:36 56.6 °F /  13.7 °C 36.6 °F /  2.6 °C 29.76in /  1007.7hPa West 9.0mph /  14.5km/h 9.0mph /  14.5km/h 47% 0.00in /  0mm 18 W/m2
16:42 54.4 °F /  12.4 °C 38.6 °F /  3.7 °C 29.76in /  1007.7hPa SW 9.0mph /  14.5km/h 9.0mph /  14.5km/h 55% 0.00in /  0mm 18 W/m2
16:48 52.5 °F /  11.4 °C 40.3 °F /  4.6 °C 29.77in /  1008hPa SW 8.0mph /  12.9km/h 9.0mph /  14.5km/h 63% 0.00in /  0mm 21 W/m2
16:54 51.6 °F /  10.9 °C 41.0 °F /  5 °C 29.77in /  1008hPa West 6.0mph /  9.7km/h 10.0mph /  16.1km/h 67% 0.00in /  0mm 14 W/m2
17:00 50.9 °F /  10.5 °C 41.5 °F /  5.3 °C 29.77in /  1008hPa SSW 5.0mph /  8km/h 6.0mph /  9.7km/h 70% 0.00in /  0mm 21 W/m2
17:06 50.3 °F /  10.2 °C 41.6 °F /  5.3 °C 29.77in /  1008hPa SW 4.0mph /  6.4km/h 6.0mph /  9.7km/h 72% 0.05in /  1.27mm 12 W/m2
17:12 49.8 °F /  9.9 °C 41.8 °F /  5.4 °C 29.76in /  1007.7hPa SSW 3.0mph /  4.8km/h 4.0mph /  6.4km/h 74% 0.05in /  1.27mm 5 W/m2
17:18 49.5 °F /  9.7 °C 42.2 °F /  5.7 °C 29.76in /  1007.7hPa SSW 2.0mph /  3.2km/h 4.0mph /  6.4km/h 76% 0.05in /  1.27mm 7 W/m2
17:24 49.3 °F /  9.6 °C 42.7 °F /  5.9 °C 29.76in /  1007.7hPa SSW 1.0mph /  1.6km/h 2.0mph /  3.2km/h 78% 0.00in /  0mm 0 W/m2
17:30 49.2 °F /  9.6 °C 43.0 °F /  6.1 °C 29.76in /  1007.7hPa SSW 2.0mph /  3.2km/h 2.0mph /  3.2km/h 79% 0.00in /  0mm 0 W/m2
17:36 49.1 °F /  9.5 °C 42.9 °F /  6.1 °C 29.76in /  1007.7hPa South 2.0mph /  3.2km/h 3.0mph /  4.8km/h 79% 0.00in /  0mm 0 W/m2
17:42 49.2 °F /  9.6 °C 43.0 °F /  6.1 °C 29.76in /  1007.7hPa South 2.0mph /  3.2km/h 2.0mph /  3.2km/h 79% 0.00in /  0mm 0 W/m2
17:48 49.1 °F /  9.5 °C 42.9 °F /  6.1 °C 29.76in /  1007.7hPa South 2.0mph /  3.2km/h 3.0mph /  4.8km/h 79% 0.00in /  0mm 0 W/m2
17:54 49.0 °F /  9.4 °C 43.1 °F /  6.2 °C 29.76in /  1007.7hPa South 2.0mph /  3.2km/h 4.0mph /  6.4km/h 80% 0.00in /  0mm 0 W/m2
18:00 48.9 °F /  9.4 °C 43.0 °F /  6.1 °C 29.76in /  1007.7hPa South 1.0mph /  1.6km/h 1.0mph /  1.6km/h 80% 0.00in /  0mm 0 W/m2
18:06 48.9 °F /  9.4 °C 43.0 °F /  6.1 °C 29.77in /  1008hPa South 1.0mph /  1.6km/h 3.0mph /  4.8km/h 80% 0.00in /  0mm 0 W/m2
18:12 48.9 °F /  9.4 °C 43.0 °F /  6.1 °C 29.76in /  1007.7hPa South 2.0mph /  3.2km/h 3.0mph /  4.8km/h 80% 0.00in /  0mm 0 W/m2
18:18 48.9 °F /  9.4 °C 43.0 °F /  6.1 °C 29.76in /  1007.7hPa South 2.0mph /  3.2km/h 3.0mph /  4.8km/h 80% 0.00in /  0mm 0 W/m2
18:24 48.7 °F /  9.3 °C 43.1 °F /  6.2 °C 29.76in /  1007.7hPa Calm   2.0mph /  3.2km/h 81% 0.00in /  0mm 0 W/m2
18:30 48.6 °F /  9.2 °C 43.0 °F /  6.1 °C 29.76in /  1007.7hPa Calm     81% 0.00in /  0mm 0 W/m2
18:36 48.5 °F /  9.2 °C 43.3 °F /  6.3 °C 29.77in /  1008hPa Calm     82% 0.00in /  0mm 0 W/m2
18:42 48.5 °F /  9.2 °C 43.3 °F /  6.3 °C 29.77in /  1008hPa Calm     82% 0.00in /  0mm 0 W/m2
18:48 48.5 °F /  9.2 °C 43.3 °F /  6.3 °C 29.78in /  1008.4hPa Calm     82% 0.00in /  0mm 0 W/m2
18:54 48.4 °F /  9.1 °C 43.5 °F /  6.4 °C 29.78in /  1008.4hPa Calm     83% 0.00in /  0mm 0 W/m2
19:00 48.2 °F /  9 °C 43.3 °F /  6.3 °C 29.78in /  1008.4hPa Calm     83% 0.00in /  0mm 0 W/m2
19:06 48.0 °F /  8.9 °C 43.4 °F /  6.3 °C 29.78in /  1008.4hPa Calm     84% 0.00in /  0mm 0 W/m2
19:12 47.8 °F /  8.8 °C 43.2 °F /  6.2 °C 29.78in /  1008.4hPa Calm     84% 0.00in /  0mm 0 W/m2
19:18 47.7 °F /  8.7 °C 43.4 °F /  6.3 °C 29.78in /  1008.4hPa Calm     85% 0.00in /  0mm 0 W/m2
19:24 47.5 °F /  8.6 °C 43.2 °F /  6.2 °C 29.78in /  1008.4hPa Calm     85% 0.00in /  0mm 0 W/m2
19:30 47.3 °F /  8.5 °C 43.3 °F /  6.3 °C 29.78in /  1008.4hPa Calm     86% 0.00in /  0mm 0 W/m2
19:36 47.1 °F /  8.4 °C 43.1 °F /  6.2 °C 29.78in /  1008.4hPa Calm     86% 0.00in /  0mm 0 W/m2
19:42 47.0 °F /  8.3 °C 43.3 °F /  6.3 °C 29.77in /  1008hPa Calm     87% 0.00in /  0mm 0 W/m2
19:48 46.9 °F /  8.3 °C 43.2 °F /  6.2 °C 29.77in /  1008hPa Calm     87% 0.00in /  0mm 0 W/m2
19:54 46.9 °F /  8.3 °C 43.2 °F /  6.2 °C 29.77in /  1008hPa Calm     87% 0.00in /  0mm 0 W/m2
20:00 46.9 °F /  8.3 °C 43.2 °F /  6.2 °C 29.77in /  1008hPa Calm   2.0mph /  3.2km/h 87% 0.00in /  0mm 0 W/m2
20:06 47.2 °F /  8.4 °C 43.5 °F /  6.4 °C 29.77in /  1008hPa South 1.0mph /  1.6km/h 3.0mph /  4.8km/h 87% 0.00in /  0mm 0 W/m2
20:12 47.5 °F /  8.6 °C 43.5 °F /  6.4 °C 29.78in /  1008.4hPa South 1.0mph /  1.6km/h 1.0mph /  1.6km/h 86% 0.00in /  0mm 0 W/m2
20:18 47.6 °F /  8.7 °C 43.3 °F /  6.3 °C 29.78in /  1008.4hPa Calm   1.0mph /  1.6km/h 85% 0.00in /  0mm 0 W/m2
20:24 47.8 °F /  8.8 °C 43.2 °F /  6.2 °C 29.78in /  1008.4hPa Calm     84% 0.00in /  0mm 0 W/m2
20:30 47.9 °F /  8.8 °C 43.3 °F /  6.3 °C 29.78in /  1008.4hPa Calm     84% 0.00in /  0mm 0 W/m2
20:36 47.9 °F /  8.8 °C 43.0 °F /  6.1 °C 29.78in /  1008.4hPa Calm     83% 0.00in /  0mm 0 W/m2
20:42 47.8 °F /  8.8 °C 42.9 °F /  6.1 °C 29.78in /  1008.4hPa Calm     83% 0.00in /  0mm 0 W/m2
20:48 47.6 °F /  8.7 °C 42.7 °F /  5.9 °C 29.78in /  1008.4hPa Calm     83% 0.00in /  0mm 0 W/m2
20:54 47.5 °F /  8.6 °C 42.6 °F /  5.9 °C 29.78in /  1008.4hPa Calm     83% 0.00in /  0mm 0 W/m2
21:00 47.3 °F /  8.5 °C 42.4 °F /  5.8 °C 29.78in /  1008.4hPa Calm     83% 0.00in /  0mm 0 W/m2
21:06 47.2 °F /  8.4 °C 42.6 °F /  5.9 °C 29.78in /  1008.4hPa Calm   1.0mph /  1.6km/h 84% 0.00in /  0mm 0 W/m2
21:12 47.6 °F /  8.7 °C 43.0 °F /  6.1 °C 29.78in /  1008.4hPa SW 1.0mph /  1.6km/h 1.0mph /  1.6km/h 84% 0.00in /  0mm 0 W/m2
21:18 48.0 °F /  8.9 °C 43.1 °F /  6.2 °C 29.78in /  1008.4hPa SW 1.0mph /  1.6km/h 1.0mph /  1.6km/h 83% 0.00in /  0mm 0 W/m2
21:24 48.1 °F /  8.9 °C 42.9 °F /  6.1 °C 29.78in /  1008.4hPa Calm     82% 0.00in /  0mm 0 W/m2
21:30 48.3 °F /  9.1 °C 43.1 °F /  6.2 °C 29.78in /  1008.4hPa Calm     82% 0.00in /  0mm 0 W/m2
21:36 48.4 °F /  9.1 °C 42.8 °F /  6 °C 29.78in /  1008.4hPa SW 1.0mph /  1.6km/h 1.0mph /  1.6km/h 81% 0.00in /  0mm 0 W/m2
21:42 48.5 °F /  9.2 °C 42.9 °F /  6.1 °C 29.79in /  1008.7hPa Calm   1.0mph /  1.6km/h 81% 0.00in /  0mm 0 W/m2
21:48 48.5 °F /  9.2 °C 42.9 °F /  6.1 °C 29.79in /  1008.7hPa Calm   1.0mph /  1.6km/h 81% 0.00in /  0mm 0 W/m2
21:54 48.7 °F /  9.3 °C 42.8 °F /  6 °C 29.78in /  1008.4hPa Calm   1.0mph /  1.6km/h 80% 0.00in /  0mm 0 W/m2
22:00 48.8 °F /  9.3 °C 42.9 °F /  6.1 °C 29.78in /  1008.4hPa SW 1.0mph /  1.6km/h 5.0mph /  8km/h 80% 0.00in /  0mm 0 W/m2
22:06 49.0 °F /  9.4 °C 42.8 °F /  6 °C 29.78in /  1008.4hPa West 2.0mph /  3.2km/h 5.0mph /  8km/h 79% 0.00in /  0mm 0 W/m2
22:12 49.2 °F /  9.6 °C 43.0 °F /  6.1 °C 29.78in /  1008.4hPa West 2.0mph /  3.2km/h 2.0mph /  3.2km/h 79% 0.00in /  0mm 0 W/m2
22:18 49.4 °F /  9.7 °C 43.2 °F /  6.2 °C 29.78in /  1008.4hPa WSW 2.0mph /  3.2km/h 4.0mph /  6.4km/h 79% 0.00in /  0mm 0 W/m2
22:24 49.6 °F /  9.8 °C 43.0 °F /  6.1 °C 29.78in /  1008.4hPa SSW 2.0mph /  3.2km/h 2.0mph /  3.2km/h 78% 0.00in /  0mm 0 W/m2
22:30 49.5 °F /  9.7 °C 42.9 °F /  6.1 °C 29.78in /  1008.4hPa WSW 1.0mph /  1.6km/h 1.0mph /  1.6km/h 78% 0.00in /  0mm 0 W/m2
22:36 49.4 °F /  9.7 °C 42.8 °F /  6 °C 29.78in /  1008.4hPa WSW 2.0mph /  3.2km/h 2.0mph /  3.2km/h 78% 0.00in /  0mm 0 W/m2
22:42 49.4 °F /  9.7 °C 42.8 °F /  6 °C 29.79in /  1008.7hPa WSW 1.0mph /  1.6km/h 1.0mph /  1.6km/h 78% 0.00in /  0mm 0 W/m2
22:48 49.3 °F /  9.6 °C 42.7 °F /  5.9 °C 29.79in /  1008.7hPa Calm   1.0mph /  1.6km/h 78% 0.00in /  0mm 0 W/m2
22:54 49.3 °F /  9.6 °C 42.7 °F /  5.9 °C 29.79in /  1008.7hPa Calm   2.0mph /  3.2km/h 78% 0.00in /  0mm 0 W/m2
23:00 49.3 °F /  9.6 °C 43.1 °F /  6.2 °C 29.79in /  1008.7hPa WNW 1.0mph /  1.6km/h 1.0mph /  1.6km/h 79% 0.00in /  0mm 0 W/m2
23:06 49.3 °F /  9.6 °C 42.7 °F /  5.9 °C 29.79in /  1008.7hPa West 1.0mph /  1.6km/h 2.0mph /  3.2km/h 78% 0.00in /  0mm 0 W/m2
23:12 49.4 °F /  9.7 °C 42.8 °F /  6 °C 29.79in /  1008.7hPa West 1.0mph /  1.6km/h 2.0mph /  3.2km/h 78% 0.00in /  0mm 0 W/m2
23:18 49.3 °F /  9.6 °C 42.7 °F /  5.9 °C 29.79in /  1008.7hPa West 1.0mph /  1.6km/h 2.0mph /  3.2km/h 78% 0.00in /  0mm 0 W/m2
23:24 49.3 °F /  9.6 °C 42.7 °F /  5.9 °C 29.79in /  1008.7hPa WNW 1.0mph /  1.6km/h 2.0mph /  3.2km/h 78% 0.00in /  0mm 0 W/m2
23:30 49.2 °F /  9.6 °C 43.0 °F /  6.1 °C 29.79in /  1008.7hPa WNW 1.0mph /  1.6km/h 1.0mph /  1.6km/h 79% 0.00in /  0mm 0 W/m2
23:36 49.0 °F /  9.4 °C 42.8 °F /  6 °C 29.80in /  1009hPa WNW 1.0mph /  1.6km/h 6.0mph /  9.7km/h 79% 0.00in /  0mm 0 W/m2
23:42 48.9 °F /  9.4 °C 42.3 °F /  5.7 °C 29.81in /  1009.4hPa WNW 2.0mph /  3.2km/h 2.0mph /  3.2km/h 78% 0.00in /  0mm 0 W/m2
23:48 48.6 °F /  9.2 °C 42.0 °F /  5.6 °C 29.81in /  1009.4hPa NW 2.0mph /  3.2km/h 5.0mph /  8km/h 78% 0.00in /  0mm 0 W/m2
23:54 48.4 °F /  9.1 °C 41.9 °F /  5.5 °C 29.81in /  1009.4hPa WNW 3.0mph /  4.8km/h 4.0mph /  6.4km/h 78% 0.00in /  0mm 0 W/m2
Country Meadow, Clay, NY, USA
Compliments of Weather Underground - 2 mb